Flight Track Log - Related Links

Times and Time Zones

All times are in EDT time to prevent confusion due to time zone crossing. See the N72647 flight status page for this flight to view local times or setup timezone preferences in your user account.

Time Position Orientation Groundspeed Altitude Reporting Facility
EDT Latitude Longitude Course Direction KTS MPH feet Rate Location/Type
Mon 11:51:23 AM 39.0417 -90.9053 291° West 123 142 8,600  Level Kansas City Center
Mon 11:52:25 AM 39.0408 -90.9567 269° West 121 139 8,600  Level Kansas City Center
Mon 11:53:27 AM 39.0389 -90.9994 267° West 122 140 8,600  Level Kansas City Center
Mon 11:54:29 AM 39.0369 -91.0422 267° West 120 138 8,600  Level Kansas City Center
Mon 11:55:31 AM 39.0425 -91.0856 279° West 121 139 8,600  Level Kansas City Center
Mon 11:56:00 AM 38.7458 -90.9311 291° West  Level Estimated
Mon 11:56:33 AM 39.0478 -91.1283 279° West 122 140 8,600  Level Kansas City Center
Mon 11:57:00 AM 38.7597 -90.9777 291° West  Level Estimated
Mon 11:57:35 AM 39.0531 -91.1800 278° West 121 139 8,600  Level Kansas City Center
Mon 11:58:37 AM 39.0581 -91.2225 279° West 121 139 8,600  Level Kansas City Center
Mon 11:59:39 AM 39.0633 -91.2644 279° West 120 138 8,600  Level Kansas City Center
Mon 12:00:41 PM 39.0667 -91.3072 276° West 120 138 8,600  Level Kansas City Center
Mon 12:01:43 PM 39.0686 -91.3511 273° West 122 140 8,600  Level Kansas City Center
Mon 12:02:45 PM 39.0714 -91.3936 275° West 121 139 8,600  Level Kansas City Center
Mon 12:03:47 PM 39.0750 -91.4447 275° West 120 138 8,600  Level Kansas City Center
Mon 12:04:49 PM 39.0786 -91.4864 276° West 119 137 8,600  Level Kansas City Center
Mon 12:05:51 PM 39.0814 -91.5283 275° West 118 136 8,600  Level Kansas City Center
Mon 12:06:53 PM 39.0836 -91.5708 274° West 119 137 8,600  Level Kansas City Center
Mon 12:07:55 PM 39.0864 -91.6156 275° West 124 143 8,600  Level Kansas City Center
Mon 12:08:57 PM 39.0889 -91.6572 274° West 120 138 8,600  Level Kansas City Center
Mon 12:09:59 PM 39.0925 -91.7089 275° West 123 142 8,600  Level Kansas City Center
Mon 12:11:01 PM 39.0953 -91.7503 275° West 119 137 8,600  Level Kansas City Center
Mon 12:12:03 PM 39.0978 -91.7933 274° West 119 137 8,600  Level Kansas City Center
Mon 12:13:05 PM 39.1017 -91.8358 277° West 120 138 8,600  Level Kansas City Center
Mon 12:14:07 PM 39.1042 -91.8853 274° West 117 135 8,600  Level Kansas City Center
Mon 12:15:09 PM 39.1072 -91.9264 275° West 116 133 8,600  Level Kansas City Center
Mon 12:16:11 PM 39.1106 -91.9706 276° West 121 139 8,600  Level Kansas City Center
Mon 12:17:13 PM 39.1136 -92.0111 276° West 117 135 8,600  Level Kansas City Center
Mon 12:18:16 PM 39.1172 -92.0556 276° West 121 139 8,600  Level Kansas City Center
Mon 12:19:18 PM 39.1203 -92.0983 275° West 121 139 8,600  Level Kansas City Center
Mon 12:20:20 PM 39.1225 -92.1411 274° West 120 138 8,600  Level Kansas City Center
Mon 12:21:22 PM 39.1186 -92.1942 265° West 121 139 8,600  Level Kansas City Center
Mon 12:22:24 PM 39.1169 -92.2378 267° West 122 140 8,600  Level Kansas City Center
Mon 12:23:26 PM 39.1181 -92.2817 272° West 122 140 8,600  Level Kansas City Center
Mon 12:24:28 PM 39.1186 -92.3250 271° West 122 140 8,600  Level Kansas City Center
Mon 12:25:30 PM 39.1169 -92.3692 267° West 123 142 8,600  Level Kansas City Center
Mon 12:26:32 PM 39.1178 -92.4111 271° West 120 138 8,600 48 Level Kansas City Center
Mon 12:27:34 PM 39.1161 -92.4631 268° West 120 138 8,700 48 Climbing Kansas City Center
Mon 12:28:36 PM 39.1164 -92.5061 270° West 121 139 8,700  Level Kansas City Center
Mon 12:29:38 PM 39.1172 -92.5492 271° West 121 139 8,700  Level Kansas City Center
Mon 12:30:40 PM 39.1167 -92.5908 269° West 119 137 8,700  Level Kansas City Center
Mon 12:31:42 PM 39.1153 -92.6342 268° West 120 138 8,700  Level Kansas City Center
Mon 12:32:44 PM 39.1156 -92.6789 270° West 123 142 8,700  Level Kansas City Center
Mon 12:33:46 PM 39.1144 -92.7261 268° West 123 142 8,700  Level Kansas City Center
Mon 12:34:48 PM 39.1144 -92.7678 270° West 120 138 8,700  Level Kansas City Center
Mon 12:35:50 PM 39.1142 -92.8117 270° West 122 140 8,700  Level Kansas City Center
Mon 12:36:52 PM 39.1136 -92.8639 269° West 121 139 8,700  Level Kansas City Center
Mon 12:37:54 PM 39.1136 -92.9081 270° West 125 144 8,700  Level Kansas City Center
Mon 12:38:56 PM 39.1131 -92.9517 269° West 124 143 8,700  Level Kansas City Center
Mon 12:39:58 PM 39.1131 -92.9939 270° West 122 140 8,700 -48 Level Kansas City Center
Mon 12:41:00 PM 39.1122 -93.0386 269° West 124 143 8,600 -48 Descending Kansas City Center
Mon 12:42:02 PM 39.1117 -93.0822 269° West 124 143 8,600  Level Kansas City Center
Mon 12:43:04 PM 39.1111 -93.1347 269° West 123 142 8,600  Level Kansas City Center
Mon 12:44:06 PM 39.1247 -93.1761 293° West 135 155 8,600  Level Kansas City Center
Mon 12:45:08 PM 39.1369 -93.2181 291° West 130 150 8,600  Level Kansas City Center
Mon 12:46:10 PM 39.1517 -93.2581 295° West 127 146 8,600  Level Kansas City Center
Mon 12:47:13 PM 39.1656 -93.2986 294° West 126 145 8,600  Level Kansas City Center
Mon 12:48:15 PM 39.1808 -93.3464 292° West 124 143 8,600  Level Kansas City Center
Mon 12:49:17 PM 39.1947 -93.3886 293° West 125 144 8,600  Level Kansas City Center
Mon 12:50:19 PM 39.2083 -93.4342 291° West 128 147 8,600  Level Kansas City Center
Mon 12:51:21 PM 39.2244 -93.4733 298° West 129 148 8,600  Level Kansas City Center
Mon 12:52:23 PM 39.2389 -93.5197 292° West 126 145 8,600  Level Kansas City Center
Mon 12:53:25 PM 39.2514 -93.5600 292° West 126 145 8,600  Level Kansas City Center
Mon 12:54:27 PM 39.2658 -93.6061 292° West 124 143 8,600  Level Kansas City Center
Mon 12:55:29 PM 39.2806 -93.6456 296° West 127 146 8,600  Level Kansas City Center
Mon 12:56:31 PM 39.2944 -93.6878 293° West 127 146 8,600 -48 Level Kansas City Center
Mon 12:57:33 PM 39.3086 -93.7300 293° West 129 148 8,500  Descending Kansas City Center
Mon 12:58:35 PM 39.3242 -93.7806 292° West 125 144 8,600  Climbing Kansas City Center
Mon 12:59:38 PM 39.3375 -93.8217 293° West 128 147 8,500  Descending Kansas City Center
Mon 01:00:40 PM 39.3533 -93.8689 293° West 128 147 8,600 48 Climbing Kansas City Center
Mon 01:01:42 PM 39.3664 -93.9103 292° West 129 148 8,600  Level Kansas City Center
Mon 01:02:44 PM 39.3825 -93.9572 294° West 127 146 8,600  Level Kansas City Center
Mon 01:03:46 PM 39.3958 -93.9981 293° West 130 150 8,600  Level Kansas City Center
Mon 01:04:48 PM 39.4108 -94.0458 292° West 128 147 8,600  Level Kansas City Center
Mon 01:05:50 PM 39.4244 -94.0858 294° West 127 146 8,600 -48 Level Kansas City Center
Mon 01:06:52 PM 39.4375 -94.1256 293° West 126 145 8,500  Descending Kansas City Center
Mon 01:07:54 PM 39.4536 -94.1722 294° West 126 145 8,600 48 Climbing Kansas City Center
Mon 01:08:56 PM 39.4831 -94.1997 324° Northwest 134 154 8,600  Level Kansas City Center
Mon 01:09:58 PM 39.5161 -94.2314 324° Northwest 133 153 8,600 -48 Level Kansas City Center
Mon 01:11:00 PM 39.5364 -94.2672 306° West 132 152 8,500  Descending Kansas City Center
Mon 01:12:03 PM 39.5508 -94.3150 291° West 129 148 8,600 48 Climbing Kansas City Center
Mon 01:13:05 PM 39.5642 -94.3556 293° West 129 148 8,600  Level Kansas City Center
Mon 01:14:07 PM 39.5803 -94.4022 294° West 127 146 8,600  Level Kansas City Center
Mon 01:15:09 PM 39.5936 -94.4425 293° West 127 146 8,600  Level Kansas City Center
Mon 01:16:11 PM 39.6069 -94.4897 290° West 126 145 8,600  Level Kansas City Center
Mon 01:17:13 PM 39.6167 -94.5297 288° West 123 142 8,600  Level Kansas City Center
Mon 01:18:15 PM 39.6292 -94.5775 289° West 125 144 8,600  Level Kansas City Center
Mon 01:19:17 PM 39.6406 -94.6178 290° West 124 143 8,600  Level Kansas City Center
Mon 01:20:31 PM 39.6542 -94.6722 288° West 124 143 8,600  Level Kansas City Center
Mon 01:21:33 PM 39.6653 -94.7131 289° West 124 143 8,600  Level Kansas City Center
Mon 01:22:35 PM 39.6772 -94.7606 288° West 125 144 8,600  Level Kansas City Center
Mon 01:23:37 PM 39.6883 -94.8006 290° West 123 142 8,600  Level Kansas City Center
Mon 01:24:39 PM 39.6994 -94.8489 287° West 125 144 8,600  Level Kansas City Center
Mon 01:25:41 PM 39.7108 -94.8889 290° West 125 144 8,600  Level Kansas City Center
Mon 01:26:43 PM 39.7231 -94.9361 289° West 123 142 8,600  Level Kansas City Center
Mon 01:27:45 PM 39.7342 -94.9764 290° West 124 143 8,600  Level Kansas City Center
Mon 01:28:47 PM 39.7467 -95.0228 289° West 123 142 8,600  Level Kansas City Center
Mon 01:29:49 PM 39.7572 -95.0631 289° West 122 140 8,600  Level Kansas City Center
Mon 01:30:52 PM 39.7719 -95.1092 293° West 123 142 8,600  Level Kansas City Center
Mon 01:31:54 PM 39.7833 -95.1478 291° West 120 138 8,600  Level Kansas City Center
Mon 01:32:56 PM 39.7972 -95.1919 292° West 119 137 8,600  Level Kansas City Center
Mon 01:33:58 PM 39.8092 -95.2289 293° West 116 133 8,600  Level Kansas City Center
Mon 01:35:00 PM 39.8228 -95.2747 291° West 119 137 8,600  Level Kansas City Center
Mon 01:36:02 PM 39.8350 -95.3136 292° West 121 139 8,600 -48 Level Kansas City Center
Mon 01:37:04 PM 39.8486 -95.3575 292° West 118 136 8,500  Descending Kansas City Center
Mon 01:38:06 PM 39.8592 -95.3961 290° West 117 135 8,600  Climbing Kansas City Center
Mon 01:39:08 PM 39.8700 -95.4350 290° West 117 135 8,500 -194 Descending Kansas City Center
Mon 01:40:10 PM 39.8856 -95.4833 293° West 128 147 8,200 -290 Descending Kansas City Center
Mon 01:41:12 PM 39.8978 -95.5264 290° West 131 151 7,900 -290 Descending Kansas City Center
Mon 01:42:14 PM 39.9158 -95.5744 296° West 132 152 7,600 -242 Descending Kansas City Center
Mon 01:43:16 PM 39.9283 -95.6181 291° West 133 153 7,400 -242 Descending Kansas City Center
Mon 01:44:18 PM 39.9444 -95.6694 292° West 137 158 7,100 -290 Descending Kansas City Center
Mon 01:45:20 PM 39.9572 -95.7147 290° West 139 160 6,800 -290 Descending Kansas City Center
Mon 01:46:22 PM 39.9728 -95.7664 291° West 138 159 6,500 -145 Descending Kansas City Center
Mon 01:47:24 PM 39.9858 -95.8092 292° West 136 157 6,500 48 Level Kansas City Center
Mon 01:48:26 PM 39.9997 -95.8572 291° West 131 151 6,600 48 Climbing Kansas City Center
Mon 01:49:28 PM 40.0119 -95.8964 292° West 126 145 6,600  Level Kansas City Center
Mon 01:50:30 PM 40.0253 -95.9469 289° West 130 150 6,600  Level Kansas City Center
Mon 01:51:32 PM 40.0378 -95.9861 293° West 125 144 6,600  Level Kansas City Center
Mon 01:52:34 PM 40.0522 -96.0325 292° West 123 142 6,600  Level Kansas City Center
Mon 01:53:36 PM 40.0633 -96.0731 290° West 124 143 6,600  Level Kansas City Center
Mon 01:54:38 PM 40.0767 -96.1128 294° West 124 143 6,600  Level Kansas City Center
Mon 01:55:40 PM 40.0944 -96.1578 297° West 125 144 6,600  Level Kansas City Center
Mon 01:56:42 PM 40.1086 -96.1986 294° West 128 147 6,600  Level Kansas City Center
Mon 01:57:44 PM 40.1250 -96.2453 295° West 127 146 6,600  Level Kansas City Center
Mon 01:58:56 PM 40.1456 -96.2903 301° West 129 148 6,600  Level Minneapolis Center
Mon 02:00:01 PM 40.1644 -96.3425 295° West 130 150 6,600 -302 Level Minneapolis Center
Mon 02:01:55 PM 40.1917 -96.4233 294° West 134 154 5,700 -443 Descending Kansas City Center
Mon 02:02:57 PM 40.2044 -96.4658 291° West 131 151 5,300 -484 Descending Kansas City Center
Mon 02:03:59 PM 40.2208 -96.5125 295° West 127 146 4,700 -532 Descending Kansas City Center
Mon 02:05:01 PM 40.2353 -96.5528 295° West 127 146 4,200 -532 Descending Kansas City Center
Mon 02:06:03 PM 40.2533 -96.6019 296° West 126 145 3,600 -581 Descending Kansas City Center

Login

Don't have an account? Register now (free) for customized features, flight alerts, and more!